createdAt,value
2023-04-26T00:00:51.761Z,25.00
2023-04-26T00:01:51.755Z,25.00
2023-04-26T00:02:51.870Z,25.00
2023-04-26T00:03:51.959Z,24.63
2023-04-26T00:04:51.920Z,25.00
2023-04-26T00:05:51.872Z,25.00
2023-04-26T00:06:51.732Z,25.00
2023-04-26T00:07:52.252Z,25.57
2023-04-26T00:08:51.969Z,25.43
2023-04-26T00:09:51.713Z,25.00
2023-04-26T00:10:51.715Z,26.83
2023-04-26T00:11:51.704Z,25.00
2023-04-26T00:12:51.677Z,25.64
2023-04-26T00:13:51.758Z,27.51
2023-04-26T00:14:51.660Z,25.00
2023-04-26T00:15:51.732Z,25.49
2023-04-26T00:16:51.842Z,27.55
2023-04-26T00:17:51.694Z,27.00
2023-04-26T00:18:51.837Z,26.09
2023-04-26T00:19:51.627Z,26.36
2023-04-26T00:20:51.634Z,25.00
2023-04-26T00:21:51.621Z,27.05
2023-04-26T00:22:52.256Z,26.62
2023-04-26T00:23:51.603Z,25.45
2023-04-26T00:24:51.598Z,28.33
2023-04-26T00:25:51.628Z,29.01
2023-04-26T00:26:51.607Z,26.91
2023-04-26T00:27:51.566Z,27.59
2023-04-26T00:28:51.852Z,25.71
2023-04-26T00:29:51.557Z,27.71
2023-04-26T00:30:51.553Z,25.00
2023-04-26T00:31:51.576Z,26.41
2023-04-26T00:32:51.638Z,28.72
2023-04-26T00:33:51.573Z,29.85
2023-04-26T00:34:51.568Z,25.59
2023-04-26T00:35:51.538Z,25.00
2023-04-26T00:36:51.522Z,25.93
2023-04-26T00:37:51.556Z,26.12
2023-04-26T00:38:51.883Z,28.99
2023-04-26T00:39:51.585Z,26.85
2023-04-26T00:40:51.597Z,27.15
2023-04-26T00:41:51.624Z,25.69
2023-04-26T00:42:51.656Z,26.91
2023-04-26T00:43:51.699Z,27.24
2023-04-26T00:44:51.676Z,28.74
2023-04-26T00:45:51.740Z,28.97
2023-04-26T00:46:52.282Z,25.29
2023-04-26T00:47:51.782Z,26.99
2023-04-26T00:48:52.012Z,28.13
2023-04-26T00:49:51.771Z,27.50
2023-04-26T00:50:51.787Z,31.26
2023-04-26T00:51:51.812Z,26.89
2023-04-26T00:52:51.826Z,27.91
2023-04-26T00:53:51.902Z,25.61
2023-04-26T00:54:51.863Z,26.90
2023-04-26T00:55:51.916Z,27.57
2023-04-26T00:56:51.923Z,29.46
2023-04-26T00:57:51.916Z,25.65
2023-04-26T00:58:52.266Z,28.03
2023-04-26T00:59:51.989Z,30.91
2023-04-26T01:00:52.148Z,27.52
2023-04-26T01:01:51.985Z,26.91
2023-04-26T01:02:52.171Z,27.38
2023-04-26T01:03:52.129Z,26.80
2023-04-26T01:04:52.048Z,27.07
2023-04-26T01:05:52.281Z,29.53
2023-04-26T01:06:52.080Z,28.65
2023-04-26T01:07:52.140Z,28.78
2023-04-26T01:08:52.411Z,28.22
2023-04-26T01:09:52.150Z,26.15
2023-04-26T01:10:52.168Z,29.58
2023-04-26T01:11:52.790Z,27.02
2023-04-26T01:12:52.230Z,26.22
2023-04-26T01:13:52.786Z,26.69
2023-04-26T01:14:52.277Z,27.93
2023-04-26T01:15:52.264Z,29.12
2023-04-26T01:16:52.381Z,29.07
2023-04-26T01:17:52.379Z,30.53
2023-04-26T01:18:52.712Z,25.00
2023-04-26T01:19:52.787Z,28.91
2023-04-26T01:20:52.351Z,29.45
2023-04-26T01:21:52.369Z,30.40
2023-04-26T01:22:52.392Z,30.17
2023-04-26T01:23:52.419Z,29.39
2023-04-26T01:24:52.418Z,28.74
2023-04-26T01:25:53.287Z,28.24
2023-04-26T01:26:52.455Z,31.34
2023-04-26T01:27:52.456Z,34.80
2023-04-26T01:28:52.835Z,31.09
2023-04-26T01:29:52.481Z,29.69
2023-04-26T01:30:52.551Z,29.88
2023-04-26T01:31:52.513Z,29.64
2023-04-26T01:32:52.574Z,27.49
2023-04-26T01:33:52.546Z,28.02
2023-04-26T01:34:52.557Z,29.33
2023-04-26T01:35:52.622Z,32.23
2023-04-26T01:36:53.289Z,28.89
2023-04-26T01:37:53.294Z,29.06
2023-04-26T01:38:53.080Z,30.01
2023-04-26T01:39:52.650Z,27.29
2023-04-26T01:40:52.675Z,27.75
2023-04-26T01:41:52.655Z,28.85
2023-04-26T01:42:52.795Z,30.62
2023-04-26T01:43:52.690Z,27.19
2023-04-26T01:44:52.705Z,27.86
2023-04-26T01:45:52.749Z,28.01
2023-04-26T01:46:52.750Z,28.81
2023-04-26T01:47:52.734Z,28.54
2023-04-26T01:48:53.013Z,29.15
2023-04-26T01:49:52.761Z,27.88
2023-04-26T01:50:53.296Z,28.51
2023-04-26T01:51:52.803Z,25.00
2023-04-26T01:52:52.806Z,26.82
2023-04-26T01:53:52.826Z,34.89
2023-04-26T01:54:52.837Z,29.62
2023-04-26T01:55:52.859Z,32.50
2023-04-26T01:56:52.871Z,31.27
2023-04-26T01:57:52.878Z,28.31
2023-04-26T01:58:53.284Z,29.49
2023-04-26T01:59:52.909Z,30.65
2023-04-26T02:00:54.185Z,25.19
2023-04-26T02:01:53.313Z,28.87
2023-04-26T02:02:53.087Z,27.32
2023-04-26T02:03:52.968Z,26.93
2023-04-26T02:04:53.007Z,28.93
2023-04-26T02:05:54.179Z,29.45
2023-04-26T02:06:53.100Z,27.97
2023-04-26T02:07:53.112Z,27.58
2023-04-26T02:08:53.447Z,28.22
2023-04-26T02:09:53.166Z,25.51
2023-04-26T02:10:53.175Z,30.00
2023-04-26T02:11:53.188Z,31.86
2023-04-26T02:12:53.204Z,30.58
2023-04-26T02:13:53.223Z,28.00
2023-04-26T02:14:53.248Z,26.52
2023-04-26T02:15:53.318Z,25.95
2023-04-26T02:16:53.290Z,27.14
2023-04-26T02:17:53.367Z,29.30
2023-04-26T02:18:53.846Z,31.51
2023-04-26T02:19:53.342Z,31.11
2023-04-26T02:20:53.355Z,28.46
2023-04-26T02:21:53.368Z,27.43
2023-04-26T02:22:53.380Z,30.19
2023-04-26T02:23:53.403Z,30.57
2023-04-26T02:24:53.427Z,28.82
2023-04-26T02:25:53.437Z,28.12
2023-04-26T02:26:53.442Z,28.94
2023-04-26T02:27:53.444Z,27.21
2023-04-26T02:28:53.562Z,30.84
2023-04-26T02:29:53.459Z,29.87
2023-04-26T02:30:53.462Z,31.15
2023-04-26T02:31:53.489Z,28.09
2023-04-26T02:32:53.486Z,32.93
2023-04-26T02:33:53.481Z,27.02
2023-04-26T02:34:53.501Z,28.82
2023-04-26T02:35:53.486Z,30.13
2023-04-26T02:36:53.505Z,30.30
2023-04-26T02:37:53.509Z,30.66
2023-04-26T02:38:53.802Z,29.20
2023-04-26T02:39:53.532Z,30.17
2023-04-26T02:40:53.552Z,27.38
2023-04-26T02:41:53.550Z,29.35
2023-04-26T02:42:53.549Z,29.29
2023-04-26T02:43:53.559Z,29.94
2023-04-26T02:44:53.576Z,27.41
2023-04-26T02:45:53.574Z,30.08
2023-04-26T02:46:53.630Z,28.28
2023-04-26T02:47:53.694Z,25.58
2023-04-26T02:48:53.912Z,26.08
2023-04-26T02:49:53.618Z,30.62
2023-04-26T02:50:53.641Z,30.31
2023-04-26T02:51:53.613Z,27.84
2023-04-26T02:52:53.624Z,29.55
2023-04-26T02:53:53.656Z,30.38
2023-04-26T02:54:53.655Z,26.51
2023-04-26T02:55:53.677Z,30.68
2023-04-26T02:56:53.672Z,29.59
2023-04-26T02:57:53.686Z,29.21
2023-04-26T02:58:53.963Z,29.01
2023-04-26T02:59:53.723Z,28.84
2023-04-26T03:00:53.823Z,27.47
2023-04-26T03:01:53.810Z,30.72
2023-04-26T03:02:53.965Z,27.96
2023-04-26T03:03:53.928Z,27.96
2023-04-26T03:04:53.787Z,27.30
2023-04-26T03:05:53.809Z,28.68
2023-04-26T03:06:53.854Z,30.43
2023-04-26T03:07:53.840Z,25.98
2023-04-26T03:08:54.124Z,31.89
2023-04-26T03:09:53.847Z,30.36
2023-04-26T03:10:53.852Z,29.17
2023-04-26T03:11:53.854Z,29.14
2023-04-26T03:12:53.869Z,29.16
2023-04-26T03:13:53.877Z,28.97
2023-04-26T03:14:53.878Z,30.40
2023-04-26T03:15:53.903Z,30.52
2023-04-26T03:16:54.947Z,29.07
2023-04-26T03:17:53.929Z,27.44
2023-04-26T03:18:54.152Z,26.86
2023-04-26T03:19:54.345Z,28.35
2023-04-26T03:20:53.923Z,28.73
2023-04-26T03:21:56.870Z,30.00
2023-04-26T03:22:54.852Z,33.67
2023-04-26T03:23:53.917Z,34.07
2023-04-26T03:24:53.902Z,29.82
2023-04-26T03:25:53.902Z,28.38
2023-04-26T03:26:53.884Z,29.04
2023-04-26T03:27:54.598Z,30.05
2023-04-26T03:28:54.137Z,29.51
2023-04-26T03:29:53.874Z,30.59
2023-04-26T03:30:53.865Z,26.82
2023-04-26T03:31:53.881Z,28.38
2023-04-26T03:32:53.880Z,29.50
2023-04-26T03:33:53.848Z,30.09
2023-04-26T03:34:54.376Z,26.77
2023-04-26T03:35:53.827Z,30.37
2023-04-26T03:36:53.819Z,28.83
2023-04-26T03:37:55.321Z,25.00
2023-04-26T03:38:53.978Z,25.27
2023-04-26T03:39:53.826Z,25.93
2023-04-26T03:40:53.789Z,26.81
2023-04-26T03:41:53.790Z,27.61
2023-04-26T03:42:53.774Z,27.98
2023-04-26T03:43:53.765Z,29.93
2023-04-26T03:44:53.769Z,26.73
2023-04-26T03:45:53.796Z,28.97
2023-04-26T03:46:53.750Z,26.56
2023-04-26T03:47:54.419Z,27.17
2023-04-26T03:48:54.033Z,30.48
2023-04-26T03:49:53.737Z,30.57
2023-04-26T03:50:53.726Z,29.12
2023-04-26T03:51:53.716Z,28.17
2023-04-26T03:52:53.701Z,28.01
2023-04-26T03:53:53.720Z,25.85
2023-04-26T03:54:53.760Z,29.58
2023-04-26T03:55:53.681Z,27.34
2023-04-26T03:56:53.699Z,28.54
2023-04-26T03:57:54.352Z,26.85
2023-04-26T03:58:53.946Z,31.48
2023-04-26T03:59:53.652Z,29.86
2023-04-26T04:00:53.649Z,30.15
2023-04-26T04:01:53.642Z,28.28
2023-04-26T04:02:53.762Z,31.75
2023-04-26T04:03:53.899Z,28.66
2023-04-26T04:04:53.915Z,27.35
2023-04-26T04:05:53.610Z,29.91
2023-04-26T04:06:53.604Z,30.50
2023-04-26T04:07:53.614Z,26.78
2023-04-26T04:08:53.843Z,25.40
2023-04-26T04:09:53.646Z,25.00
2023-04-26T04:10:53.577Z,30.84
2023-04-26T04:11:54.326Z,27.54
2023-04-26T04:12:53.560Z,27.64
2023-04-26T04:13:53.556Z,32.06
2023-04-26T04:14:53.553Z,28.44
2023-04-26T04:15:53.580Z,30.68
2023-04-26T04:16:53.531Z,30.84
2023-04-26T04:17:53.621Z,28.55
2023-04-26T04:18:53.889Z,29.07
2023-04-26T04:19:53.865Z,33.16
2023-04-26T04:20:54.380Z,31.38
2023-04-26T04:21:53.503Z,29.07
2023-04-26T04:22:53.496Z,29.11
2023-04-26T04:23:53.505Z,31.08
2023-04-26T04:24:53.484Z,32.57
2023-04-26T04:25:54.388Z,31.43
2023-04-26T04:26:53.473Z,30.22
2023-04-26T04:27:53.461Z,27.67
2023-04-26T04:28:53.744Z,29.75
2023-04-26T04:29:53.477Z,30.37
2023-04-26T04:30:53.460Z,30.68
2023-04-26T04:31:53.434Z,28.98
2023-04-26T04:32:53.454Z,28.86
2023-04-26T04:33:53.420Z,27.75
2023-04-26T04:34:53.445Z,26.59
2023-04-26T04:35:53.404Z,30.25
2023-04-26T04:36:53.398Z,27.60
2023-04-26T04:37:53.400Z,28.45
2023-04-26T04:38:53.674Z,31.85
2023-04-26T04:39:53.413Z,30.47
2023-04-26T04:40:53.384Z,26.43
2023-04-26T04:41:53.412Z,31.59
2023-04-26T04:42:56.388Z,30.61
2023-04-26T04:43:53.392Z,35.24
2023-04-26T04:44:53.380Z,30.56
2023-04-26T04:45:55.880Z,28.87
2023-04-26T04:46:53.415Z,29.28
2023-04-26T04:47:53.406Z,29.47
2023-04-26T04:48:53.819Z,30.33
2023-04-26T04:49:53.348Z,31.20
2023-04-26T04:50:53.374Z,30.12
2023-04-26T04:51:53.331Z,27.68
2023-04-26T04:52:53.342Z,29.98
2023-04-26T04:53:53.324Z,30.67
2023-04-26T04:54:53.380Z,26.87
2023-04-26T04:55:53.337Z,29.87
2023-04-26T04:56:53.879Z,31.61
2023-04-26T04:57:53.899Z,28.65
2023-04-26T04:58:53.641Z,26.03
2023-04-26T04:59:53.368Z,29.05
2023-04-26T05:00:53.277Z,29.44
2023-04-26T05:01:53.321Z,31.84
2023-04-26T05:02:53.442Z,32.82
2023-04-26T05:03:53.560Z,28.35
2023-04-26T05:04:53.331Z,29.27
2023-04-26T05:05:53.246Z,31.75
2023-04-26T05:06:53.248Z,32.22
2023-04-26T05:07:53.243Z,29.28
2023-04-26T05:08:53.218Z,29.11
2023-04-26T05:09:53.242Z,29.71
2023-04-26T05:10:53.209Z,29.39
2023-04-26T05:11:53.209Z,29.01
2023-04-26T05:12:53.204Z,29.76
2023-04-26T05:13:53.280Z,28.89
2023-04-26T05:14:59.665Z,29.30
2023-04-26T05:15:53.185Z,29.86
2023-04-26T05:16:53.228Z,29.89
2023-04-26T05:17:53.206Z,30.62
2023-04-26T05:18:53.164Z,30.22
2023-04-26T05:19:53.177Z,30.16
2023-04-26T05:20:53.146Z,29.11
2023-04-26T05:21:53.162Z,30.16
2023-04-26T05:22:53.197Z,33.38
2023-04-26T05:23:53.410Z,36.59
2023-04-26T05:24:53.137Z,37.98
2023-04-26T05:25:53.153Z,36.93
2023-04-26T05:26:53.126Z,41.20
2023-04-26T05:27:53.091Z,45.15
2023-04-26T05:28:53.098Z,45.25
2023-04-26T05:29:53.115Z,46.84
2023-04-26T05:30:53.074Z,51.45
2023-04-26T05:31:53.096Z,52.73
2023-04-26T05:32:53.083Z,57.15
2023-04-26T05:33:53.339Z,59.47
2023-04-26T05:34:53.044Z,57.79
2023-04-26T05:35:53.424Z,62.95
2023-04-26T05:36:53.039Z,64.97
2023-04-26T05:37:53.033Z,63.71
2023-04-26T05:38:53.022Z,70.93
2023-04-26T05:39:53.013Z,71.03
2023-04-26T05:40:53.011Z,78.45
2023-04-26T05:41:53.005Z,77.86
2023-04-26T05:42:53.008Z,81.33
2023-04-26T05:43:53.346Z,88.92
2023-04-26T05:44:53.134Z,81.95
2023-04-26T05:45:53.603Z,89.29
2023-04-26T05:46:53.250Z,90.76
2023-04-26T05:47:53.357Z,94.23
2023-04-26T05:48:53.354Z,98.06
2023-04-26T05:49:53.456Z,98.82
2023-04-26T05:50:53.461Z,104.46
2023-04-26T05:51:53.573Z,103.03
2023-04-26T05:52:53.602Z,109.82
2023-04-26T05:53:54.185Z,116.91
2023-04-26T05:54:56.881Z,118.18
2023-04-26T05:55:53.930Z,118.46
2023-04-26T05:56:58.954Z,119.03
2023-04-26T05:57:53.717Z,118.81
2023-04-26T05:58:53.936Z,121.31
2023-04-26T05:59:53.668Z,123.77
2023-04-26T06:00:53.614Z,127.74
2023-04-26T06:01:53.800Z,130.57
2023-04-26T06:02:54.005Z,132.45
2023-04-26T06:03:55.966Z,131.16
2023-04-26T06:04:54.150Z,131.58
2023-04-26T06:05:54.254Z,132.03
2023-04-26T06:06:54.840Z,132.74
2023-04-26T06:07:53.935Z,133.98
2023-04-26T06:08:53.908Z,136.09
2023-04-26T06:09:54.001Z,134.09
2023-04-26T06:10:54.439Z,133.63
2023-04-26T06:11:54.068Z,133.15
2023-04-26T06:12:54.118Z,136.82
2023-04-26T06:13:54.406Z,136.50
2023-04-26T06:14:54.465Z,134.70
2023-04-26T06:15:54.297Z,133.77
2023-04-26T06:16:54.364Z,136.09
2023-04-26T06:17:54.463Z,134.22
2023-04-26T06:18:54.437Z,134.84
2023-04-26T06:19:54.939Z,134.57
2023-04-26T06:20:54.537Z,133.99
2023-04-26T06:21:54.597Z,135.74
2023-04-26T06:22:54.661Z,133.32
2023-04-26T06:23:54.861Z,132.25
2023-04-26T06:24:54.964Z,134.74
2023-04-26T06:25:54.943Z,134.10
2023-04-26T06:26:54.853Z,133.87
2023-04-26T06:27:54.915Z,135.32
2023-04-26T06:28:54.978Z,131.21
2023-04-26T06:29:55.019Z,128.04
2023-04-26T06:30:55.641Z,131.79
2023-04-26T06:31:55.130Z,129.79
2023-04-26T06:32:55.278Z,127.48
2023-04-26T06:33:55.523Z,130.59
2023-04-26T06:34:55.289Z,128.37
2023-04-26T06:35:55.457Z,129.53
2023-04-26T06:36:55.480Z,128.26
2023-04-26T06:37:55.442Z,130.95
2023-04-26T06:38:55.500Z,129.87
2023-04-26T06:39:55.552Z,129.95
2023-04-26T06:40:55.604Z,128.39
2023-04-26T06:41:55.946Z,126.73
2023-04-26T06:42:55.712Z,125.69
2023-04-26T06:43:55.777Z,128.72
2023-04-26T06:44:55.814Z,123.75
2023-04-26T06:45:55.993Z,125.90
2023-04-26T06:46:55.903Z,122.99
2023-04-26T06:47:55.991Z,125.07
2023-04-26T06:48:56.001Z,121.95
2023-04-26T06:49:56.727Z,121.99
2023-04-26T06:51:03.866Z,125.04
2023-04-26T06:51:56.104Z,125.26
2023-04-26T06:52:56.068Z,125.67
2023-04-26T06:53:56.071Z,125.22
2023-04-26T06:54:57.715Z,124.88
2023-04-26T06:56:11.677Z,125.14
2023-04-26T06:56:56.090Z,125.68
2023-04-26T06:57:56.124Z,126.43
2023-04-26T06:58:56.030Z,126.31
2023-04-26T06:59:56.034Z,125.02
2023-04-26T07:00:56.482Z,121.00
2023-04-26T07:01:56.099Z,123.12
2023-04-26T07:02:56.210Z,121.91
2023-04-26T07:03:56.503Z,120.13
2023-04-26T07:04:56.324Z,121.03
2023-04-26T07:05:56.065Z,122.98
2023-04-26T07:06:55.983Z,122.07
2023-04-26T07:07:56.471Z,120.24
2023-04-26T07:08:56.050Z,119.06
2023-04-26T07:09:56.321Z,117.80
2023-04-26T07:10:55.950Z,118.46
2023-04-26T07:12:55.998Z,118.74
2023-04-26T07:13:55.939Z,117.65
2023-04-26T07:14:55.908Z,116.73
2023-04-26T07:15:55.957Z,113.34
2023-04-26T07:16:55.962Z,116.28
2023-04-26T07:17:56.527Z,119.24
2023-04-26T07:18:56.056Z,117.32
2023-04-26T07:19:56.367Z,113.16
2023-04-26T07:20:56.155Z,113.72
2023-04-26T07:21:56.993Z,114.23
2023-04-26T07:22:56.471Z,113.76
2023-04-26T07:23:56.311Z,115.00
2023-04-26T07:24:56.374Z,112.45
2023-04-26T07:25:57.788Z,112.59
2023-04-26T07:26:56.867Z,114.05
2023-04-26T07:27:57.468Z,113.61
2023-04-26T07:28:56.568Z,114.51
2023-04-26T07:29:57.020Z,115.22
2023-04-26T07:30:56.854Z,114.59
2023-04-26T07:31:56.680Z,110.28
2023-04-26T07:32:57.145Z,111.93
2023-04-26T07:33:57.411Z,113.17
2023-04-26T07:34:56.854Z,111.12
2023-04-26T07:35:56.866Z,117.31
2023-04-26T07:36:56.975Z,121.98
2023-04-26T07:37:57.041Z,131.76
2023-04-26T07:38:57.487Z,135.65
2023-04-26T07:39:57.019Z,139.77
2023-04-26T07:40:57.512Z,144.32
2023-04-26T07:41:57.054Z,151.38
2023-04-26T07:42:57.091Z,154.75
2023-04-26T07:43:57.087Z,165.57
2023-04-26T07:44:57.101Z,178.73
2023-04-26T07:45:57.526Z,183.08
2023-04-26T07:46:57.103Z,186.51
2023-04-26T07:47:57.190Z,198.25
2023-04-26T07:48:57.136Z,197.72
2023-04-26T07:49:57.123Z,208.11
2023-04-26T07:50:57.496Z,218.05
2023-04-26T07:51:57.124Z,226.82
2023-04-26T07:52:57.161Z,227.05
2023-04-26T07:53:57.187Z,231.47
2023-04-26T07:54:57.486Z,240.87
2023-04-26T07:55:57.487Z,246.55
2023-04-26T07:56:57.181Z,249.08
2023-04-26T07:57:57.172Z,249.55
2023-04-26T07:58:57.222Z,241.78
2023-04-26T07:59:57.731Z,207.42
2023-04-26T08:00:57.497Z,187.46
2023-04-26T08:01:57.584Z,163.97
2023-04-26T08:02:57.600Z,144.54
2023-04-26T08:03:57.988Z,129.35
2023-04-26T08:04:57.529Z,103.59
2023-04-26T08:05:57.634Z,105.95
2023-04-26T08:06:57.298Z,86.48
2023-04-26T08:07:57.353Z,84.64
2023-04-26T08:08:57.386Z,78.93
2023-04-26T08:09:58.487Z,77.77
2023-04-26T08:10:57.493Z,54.73
2023-04-26T08:11:58.161Z,46.73
2023-04-26T08:12:57.554Z,34.21
2023-04-26T08:13:57.597Z,29.59
2023-04-26T08:14:57.626Z,30.26
2023-04-26T08:15:58.003Z,24.56
2023-04-26T08:16:57.790Z,25.00
2023-04-26T08:17:57.824Z,25.54
2023-04-26T08:18:57.809Z,27.92
2023-04-26T08:19:57.843Z,31.39
2023-04-26T08:20:57.996Z,32.97
2023-04-26T08:21:57.950Z,32.09
2023-04-26T08:22:57.984Z,37.79
2023-04-26T08:23:58.038Z,24.79
2023-04-26T08:24:58.080Z,25.00
2023-04-26T08:25:58.918Z,32.26
2023-04-26T08:26:58.177Z,25.61
2023-04-26T08:27:58.213Z,25.66
2023-04-26T08:28:58.261Z,25.00
2023-04-26T08:29:58.322Z,26.92
2023-04-26T08:30:58.447Z,28.16
2023-04-26T08:31:58.410Z,37.45
2023-04-26T08:32:58.541Z,29.99
2023-04-26T08:33:58.509Z,38.69
2023-04-26T08:34:58.576Z,44.10
2023-04-26T08:35:59.001Z,53.35
2023-04-26T08:36:58.667Z,58.61
2023-04-26T08:37:58.714Z,50.01
2023-04-26T08:38:58.773Z,43.75
2023-04-26T08:39:58.815Z,36.43
2023-04-26T08:40:59.195Z,30.54
2023-04-26T08:41:59.068Z,30.49
2023-04-26T08:42:59.146Z,26.72
2023-04-26T08:43:59.011Z,40.05
2023-04-26T08:44:59.066Z,14.88
2023-04-26T08:45:59.689Z,25.00
2023-04-26T08:46:59.075Z,28.63
2023-04-26T08:48:01.032Z,34.35
2023-04-26T08:48:59.087Z,47.97
2023-04-26T08:49:59.077Z,53.00
2023-04-26T08:50:59.071Z,64.45
2023-04-26T08:52:00.091Z,75.47
2023-04-26T08:52:59.051Z,84.88
2023-04-26T08:53:59.772Z,90.26
2023-04-26T08:54:59.046Z,97.56
2023-04-26T08:55:59.509Z,104.62
2023-04-26T08:56:59.048Z,114.70
2023-04-26T08:57:59.061Z,120.66
2023-04-26T08:58:59.021Z,130.09
2023-04-26T08:59:59.016Z,137.31
2023-04-26T09:00:59.525Z,141.14
2023-04-26T09:01:59.135Z,147.90
2023-04-26T09:02:59.175Z,153.34
2023-04-26T09:03:59.641Z,157.60
2023-04-26T09:04:59.264Z,164.10
2023-04-26T09:05:59.344Z,169.76
2023-04-26T09:06:59.147Z,174.43
2023-04-26T09:07:59.124Z,179.07
2023-04-26T09:08:59.132Z,186.58
2023-04-26T09:09:59.128Z,190.92
2023-04-26T09:10:59.516Z,195.30
2023-04-26T09:11:59.133Z,200.28
2023-04-26T09:12:59.157Z,202.70
2023-04-26T09:13:59.278Z,205.89
2023-04-26T09:14:59.186Z,211.91
2023-04-26T09:15:59.289Z,215.78
2023-04-26T09:17:00.061Z,220.01
2023-04-26T09:17:59.394Z,222.93
2023-04-26T09:18:59.422Z,228.01
2023-04-26T09:19:59.483Z,232.64
2023-04-26T09:21:00.027Z,238.73
2023-04-26T09:21:59.586Z,240.32
2023-04-26T09:22:59.652Z,246.76
2023-04-26T09:24:00.051Z,248.55
2023-04-26T09:24:59.743Z,250.00
2023-04-26T09:25:59.814Z,250.24
2023-04-26T09:26:59.871Z,250.00
2023-04-26T09:27:59.894Z,202.15
2023-04-26T09:29:00.033Z,110.66
2023-04-26T09:29:59.971Z,89.36
2023-04-26T09:31:00.146Z,80.22
2023-04-26T09:32:01.022Z,33.86
2023-04-26T09:33:00.168Z,25.17
2023-04-26T09:34:00.151Z,16.85
2023-04-26T09:35:00.130Z,31.67
2023-04-26T09:36:00.523Z,33.85
2023-04-26T09:37:00.164Z,46.34
2023-04-26T09:38:02.972Z,49.11
2023-04-26T09:39:00.197Z,49.13
2023-04-26T09:40:00.194Z,48.58
2023-04-26T09:41:00.553Z,47.64
2023-04-26T09:42:00.172Z,50.52
2023-04-26T09:43:00.404Z,56.23
2023-04-26T09:44:00.160Z,54.09
2023-04-26T09:45:00.165Z,55.90
2023-04-26T09:46:00.603Z,61.25
2023-04-26T09:47:00.353Z,59.93
2023-04-26T09:48:00.259Z,50.78
2023-04-26T09:49:00.157Z,39.90
2023-04-26T09:50:00.545Z,38.55
2023-04-26T09:51:00.529Z,50.23
2023-04-26T09:52:00.156Z,51.51
2023-04-26T09:53:00.136Z,48.45
2023-04-26T09:54:00.129Z,57.78
2023-04-26T09:55:00.148Z,53.20
2023-04-26T09:56:00.557Z,49.61
2023-04-26T09:57:00.105Z,52.73
2023-04-26T09:58:01.075Z,51.68
2023-04-26T09:59:00.105Z,37.84
2023-04-26T10:00:00.543Z,35.08
2023-04-26T10:01:00.617Z,42.65
2023-04-26T10:02:01.154Z,40.39
2023-04-26T10:03:00.428Z,32.14
2023-04-26T10:04:00.471Z,43.67
2023-04-26T10:05:00.624Z,53.18
2023-04-26T10:06:00.540Z,42.46
2023-04-26T10:07:00.453Z,41.98
2023-04-26T10:08:00.516Z,45.64
2023-04-26T10:09:00.534Z,41.66
2023-04-26T10:10:00.578Z,39.05
2023-04-26T10:11:01.049Z,40.37
2023-04-26T10:12:00.677Z,39.58
2023-04-26T10:13:00.708Z,42.73
2023-04-26T10:14:00.830Z,33.12
2023-04-26T10:15:00.792Z,33.61
2023-04-26T10:16:01.205Z,29.40
2023-04-26T10:17:00.958Z,34.43
2023-04-26T10:18:01.184Z,31.90
2023-04-26T10:19:00.958Z,32.14
2023-04-26T10:20:00.991Z,43.37
2023-04-26T10:21:01.029Z,43.49
2023-04-26T10:22:01.069Z,40.86
2023-04-26T10:23:01.599Z,36.82
2023-04-26T10:24:01.152Z,37.12
2023-04-26T10:25:01.181Z,25.00
2023-04-26T10:26:01.560Z,27.73
2023-04-26T10:27:01.262Z,32.39
2023-04-26T10:28:01.314Z,35.61
2023-04-26T10:29:02.900Z,42.58
2023-04-26T10:30:01.754Z,46.82
2023-04-26T10:31:01.931Z,44.82
2023-04-26T10:32:02.088Z,43.46
2023-04-26T10:33:01.775Z,45.38
2023-04-26T10:34:01.915Z,42.24
2023-04-26T10:35:01.671Z,51.39
2023-04-26T10:36:01.561Z,59.35
2023-04-26T10:37:01.762Z,51.37
2023-04-26T10:38:01.546Z,56.17
2023-04-26T10:39:01.664Z,61.49
2023-04-26T10:40:01.791Z,60.84
2023-04-26T10:41:01.670Z,49.51
2023-04-26T10:42:01.398Z,45.25
2023-04-26T10:43:01.975Z,39.55
2023-04-26T10:44:01.704Z,44.93
2023-04-26T10:45:01.682Z,46.00
2023-04-26T10:46:01.720Z,48.11
2023-04-26T10:47:02.697Z,56.71
2023-04-26T10:48:01.600Z,46.64
2023-04-26T10:49:01.744Z,50.87
2023-04-26T10:50:02.994Z,40.40
2023-04-26T10:51:01.680Z,40.47
2023-04-26T10:52:01.261Z,33.53
2023-04-26T10:53:01.264Z,41.54
2023-04-26T10:54:01.263Z,41.73
2023-04-26T10:55:01.240Z,46.76
2023-04-26T10:56:01.567Z,44.52
2023-04-26T10:57:01.236Z,40.96
2023-04-26T10:58:01.561Z,43.31
2023-04-26T10:59:01.220Z,42.96
2023-04-26T11:00:01.208Z,46.53
2023-04-26T11:01:01.261Z,51.18
2023-04-26T11:02:01.194Z,38.71
2023-04-26T11:03:01.343Z,0.00
2023-04-26T11:04:01.917Z,0.00
2023-04-26T11:05:01.206Z,0.00
2023-04-26T11:06:01.779Z,0.00
2023-04-26T11:07:01.159Z,0.00
2023-04-26T11:08:01.165Z,0.00
2023-04-26T11:09:01.577Z,0.00
2023-04-26T11:10:01.208Z,6.40
2023-04-26T11:11:01.591Z,25.29
2023-04-26T11:12:01.122Z,35.95
2023-04-26T11:13:01.110Z,52.73
2023-04-26T11:14:01.125Z,65.66
2023-04-26T11:15:01.162Z,74.91
2023-04-26T11:16:01.903Z,75.86
2023-04-26T11:17:01.652Z,83.61
2023-04-26T11:18:01.199Z,85.90
2023-04-26T11:19:01.149Z,89.49
2023-04-26T11:20:01.141Z,91.93
2023-04-26T11:21:01.207Z,98.11
2023-04-26T11:22:01.283Z,104.08
2023-04-26T11:23:01.335Z,107.29
2023-04-26T11:24:01.332Z,110.57
2023-04-26T11:25:01.351Z,111.92
2023-04-26T11:26:01.345Z,113.36
2023-04-26T11:27:01.338Z,116.40
2023-04-26T11:28:01.382Z,121.37
2023-04-26T11:29:01.492Z,124.90
2023-04-26T11:30:01.519Z,131.93
2023-04-26T11:31:01.632Z,133.70
2023-04-26T11:32:01.850Z,137.37
2023-04-26T11:33:01.733Z,139.66
2023-04-26T11:34:01.722Z,141.60
2023-04-26T11:35:01.775Z,142.96
2023-04-26T11:36:02.092Z,142.82
2023-04-26T11:37:01.861Z,146.87
2023-04-26T11:38:01.924Z,150.19
2023-04-26T11:39:02.967Z,153.40
2023-04-26T11:40:02.001Z,157.01
2023-04-26T11:41:02.023Z,160.58
2023-04-26T11:42:02.202Z,161.92
2023-04-26T11:43:02.084Z,163.54
2023-04-26T11:44:02.164Z,165.07
2023-04-26T11:45:02.145Z,167.92
2023-04-26T11:46:02.602Z,171.32
2023-04-26T11:47:03.241Z,175.27
2023-04-26T11:48:02.229Z,177.51
2023-04-26T11:49:02.207Z,180.46
2023-04-26T11:50:02.230Z,181.04
2023-04-26T11:51:02.620Z,183.36
2023-04-26T11:52:02.264Z,184.03
2023-04-26T11:53:02.278Z,186.29
2023-04-26T11:54:02.317Z,187.77
2023-04-26T11:55:02.321Z,188.52
2023-04-26T11:56:02.325Z,192.06
2023-04-26T11:57:02.333Z,193.64
2023-04-26T11:58:02.326Z,193.90
2023-04-26T11:59:02.338Z,196.25
2023-04-26T12:00:02.621Z,197.66
2023-04-26T12:01:02.346Z,198.21
2023-04-26T12:02:02.717Z,200.23
2023-04-26T12:03:02.578Z,200.17
2023-04-26T12:04:02.767Z,198.47
2023-04-26T12:05:02.472Z,198.73
2023-04-26T12:06:02.433Z,200.91
2023-04-26T12:07:02.351Z,196.69
2023-04-26T12:08:02.355Z,161.83
2023-04-26T12:09:02.403Z,128.19
2023-04-26T12:10:02.446Z,106.99
2023-04-26T12:11:02.534Z,85.90
2023-04-26T12:12:02.534Z,74.37
2023-04-26T12:13:02.527Z,64.28
2023-04-26T12:14:02.533Z,55.54
2023-04-26T12:15:02.572Z,44.26
2023-04-26T12:16:05.338Z,38.83
2023-04-26T12:17:02.647Z,39.03
2023-04-26T12:18:03.141Z,39.80
2023-04-26T12:19:02.591Z,39.50
2023-04-26T12:20:02.749Z,37.66
2023-04-26T12:21:02.582Z,48.37
2023-04-26T12:22:02.572Z,61.14
2023-04-26T12:23:02.600Z,79.47
2023-04-26T12:24:02.564Z,88.84
2023-04-26T12:25:02.551Z,102.18
2023-04-26T12:26:02.758Z,113.89
2023-04-26T12:27:02.839Z,124.16
2023-04-26T12:28:02.595Z,134.85
2023-04-26T12:29:02.519Z,143.29
2023-04-26T12:30:02.532Z,147.34
2023-04-26T12:31:02.556Z,154.65
2023-04-26T12:32:02.787Z,161.39
2023-04-26T12:33:15.549Z,166.96
2023-04-26T12:34:02.495Z,167.23
2023-04-26T12:35:02.491Z,168.57
2023-04-26T12:36:02.493Z,172.62
2023-04-26T12:37:02.472Z,178.55
2023-04-26T12:38:02.467Z,190.05
2023-04-26T12:39:02.457Z,195.39
2023-04-26T12:40:02.447Z,196.95
2023-04-26T12:41:02.439Z,200.47
2023-04-26T12:42:02.479Z,204.03
2023-04-26T12:43:02.432Z,207.34
2023-04-26T12:44:02.422Z,211.01
2023-04-26T12:45:02.414Z,213.31
2023-04-26T12:46:02.479Z,216.75
2023-04-26T12:47:02.394Z,219.39